createdAt,value
2023-05-23T00:01:21.351Z,6.28
2023-05-23T00:03:49.389Z,6.95
2023-05-23T00:06:21.224Z,6.47
2023-05-23T00:08:48.355Z,6.32
2023-05-23T00:11:15.197Z,6.53
2023-05-23T00:13:42.073Z,7.07
2023-05-23T00:16:12.563Z,7.22
2023-05-23T00:18:42.999Z,6.18
2023-05-23T00:21:10.079Z,5.90
2023-05-23T00:23:36.585Z,6.53
2023-05-23T00:26:03.871Z,6.72
2023-05-23T00:28:30.472Z,6.88
2023-05-23T00:30:56.990Z,7.10
2023-05-23T00:33:23.811Z,6.50
2023-05-23T00:35:50.470Z,7.15
2023-05-23T00:38:17.718Z,7.45
2023-05-23T00:40:44.460Z,7.75
2023-05-23T00:43:10.992Z,8.65
2023-05-23T00:45:37.517Z,7.70
2023-05-23T00:48:05.033Z,7.60
2023-05-23T00:50:33.666Z,7.95
2023-05-23T00:53:01.728Z,7.75
2023-05-23T00:55:29.062Z,8.98
2023-05-23T00:57:57.221Z,7.80
2023-05-23T01:00:25.616Z,8.23
2023-05-23T01:02:53.532Z,8.57
2023-05-23T01:05:22.700Z,8.38
2023-05-23T01:07:51.171Z,7.63
2023-05-23T01:10:21.324Z,8.30
2023-05-23T01:12:58.374Z,8.02
2023-05-23T01:15:55.819Z,8.00
2023-05-23T01:18:35.209Z,8.45
2023-05-23T01:21:09.852Z,9.13
2023-05-23T01:23:55.767Z,9.00
2023-05-23T01:26:32.425Z,8.77
2023-05-23T01:29:10.161Z,8.63
2023-05-23T01:31:44.744Z,8.25
2023-05-23T01:34:12.808Z,7.93
2023-05-23T01:36:43.690Z,8.00
2023-05-23T01:39:10.762Z,8.07
2023-05-23T01:41:37.596Z,7.70
2023-05-23T01:44:05.379Z,9.32
2023-05-23T01:46:34.274Z,7.40
2023-05-23T01:49:03.688Z,9.07
2023-05-23T01:51:31.652Z,8.30
2023-05-23T01:53:58.609Z,9.07
2023-05-23T01:56:25.328Z,9.35
2023-05-23T01:58:52.035Z,9.23
2023-05-23T02:01:18.833Z,8.90
2023-05-23T02:03:45.724Z,8.48
2023-05-23T02:06:12.547Z,9.65
2023-05-23T02:08:39.119Z,8.85
2023-05-23T02:11:05.881Z,9.23
2023-05-23T02:13:32.340Z,9.63
2023-05-23T02:15:59.047Z,9.55
2023-05-23T02:18:26.430Z,9.68
2023-05-23T02:20:52.930Z,9.65
2023-05-23T02:23:19.363Z,9.70
2023-05-23T02:25:45.900Z,9.45
2023-05-23T02:28:12.995Z,9.55
2023-05-23T02:30:40.137Z,10.57
2023-05-23T02:33:08.170Z,10.15
2023-05-23T02:35:34.820Z,10.43
2023-05-23T02:38:01.396Z,10.25
2023-05-23T02:40:27.850Z,10.70
2023-05-23T02:42:57.217Z,10.80
2023-05-23T02:45:24.742Z,10.32
2023-05-23T02:47:51.399Z,10.23
2023-05-23T02:50:18.071Z,11.27
2023-05-23T02:52:45.065Z,12.20
2023-05-23T02:55:11.669Z,11.38
2023-05-23T02:57:38.188Z,13.20
2023-05-23T03:00:05.114Z,13.48
2023-05-23T03:02:32.035Z,12.38
2023-05-23T03:04:58.659Z,11.65
2023-05-23T03:07:28.706Z,12.43
2023-05-23T03:09:56.485Z,11.77
2023-05-23T03:12:25.459Z,12.18
2023-05-23T03:14:52.133Z,12.63
2023-05-23T03:17:19.063Z,11.98
2023-05-23T03:19:45.787Z,11.80
2023-05-23T03:22:12.449Z,12.45
2023-05-23T03:24:39.047Z,12.60
2023-05-23T03:27:05.860Z,12.15
2023-05-23T03:29:33.010Z,12.43
2023-05-23T03:31:59.720Z,13.80
2023-05-23T03:34:26.898Z,12.50
2023-05-23T03:36:53.731Z,12.52
2023-05-23T03:39:20.552Z,12.85
2023-05-23T03:41:47.557Z,13.18
2023-05-23T03:44:14.912Z,13.60
2023-05-23T03:46:41.970Z,14.10
2023-05-23T03:49:08.794Z,12.98
2023-05-23T03:51:36.028Z,13.88
2023-05-23T03:54:02.787Z,13.73
2023-05-23T03:56:29.423Z,13.93
2023-05-23T03:58:56.120Z,14.60
2023-05-23T04:01:22.929Z,14.88
2023-05-23T04:03:50.054Z,13.95
2023-05-23T04:06:17.493Z,14.00
2023-05-23T04:08:44.273Z,13.85
2023-05-23T04:11:10.989Z,14.10
2023-05-23T04:13:38.354Z,12.60
2023-05-23T04:16:06.048Z,12.73
2023-05-23T04:18:39.509Z,11.05
2023-05-23T04:21:06.494Z,10.85
2023-05-23T04:23:33.064Z,10.98
2023-05-23T04:26:00.454Z,9.98
2023-05-23T04:28:27.997Z,9.50
2023-05-23T04:30:54.692Z,9.63
2023-05-23T04:33:21.676Z,9.15
2023-05-23T04:35:49.502Z,9.65
2023-05-23T04:38:16.042Z,9.32
2023-05-23T04:40:42.963Z,8.55
2023-05-23T04:43:10.243Z,8.57
2023-05-23T04:45:38.224Z,8.52
2023-05-23T04:48:04.794Z,7.90
2023-05-23T04:50:33.372Z,8.02
2023-05-23T04:52:59.956Z,8.68
2023-05-23T04:55:26.725Z,8.65
2023-05-23T04:57:53.596Z,9.05
2023-05-23T05:00:20.429Z,8.75
2023-05-23T05:02:47.021Z,8.70
2023-05-23T05:05:13.582Z,9.25
2023-05-23T05:07:40.512Z,8.55
2023-05-23T05:10:07.932Z,8.73
2023-05-23T05:12:34.610Z,9.02
2023-05-23T05:15:01.275Z,9.18
2023-05-23T05:17:28.110Z,8.45
2023-05-23T05:19:54.660Z,9.23
2023-05-23T05:22:21.616Z,8.45
2023-05-23T05:24:48.288Z,8.77
2023-05-23T05:27:14.846Z,8.18
2023-05-23T05:29:42.315Z,8.48
2023-05-23T05:32:09.173Z,7.50
2023-05-23T05:34:35.816Z,8.05
2023-05-23T05:37:02.708Z,7.82
2023-05-23T05:39:29.300Z,7.80
2023-05-23T05:41:56.268Z,7.50
2023-05-23T05:44:22.688Z,8.75
2023-05-23T05:46:49.456Z,8.25
2023-05-23T05:49:16.484Z,7.85
2023-05-23T05:51:42.908Z,6.38
2023-05-23T05:54:09.377Z,8.23
2023-05-23T05:56:35.913Z,5.97
2023-05-23T05:59:02.421Z,6.55
2023-05-23T06:01:29.145Z,6.75
2023-05-23T06:03:56.350Z,6.38
2023-05-23T06:06:23.088Z,5.93
2023-05-23T06:08:49.561Z,5.70
2023-05-23T06:11:16.037Z,4.35
2023-05-23T06:13:43.129Z,5.15
2023-05-23T06:16:09.797Z,3.90
2023-05-23T06:18:36.289Z,3.70
2023-05-23T06:21:02.834Z,3.60
2023-05-23T06:23:29.394Z,3.33
2023-05-23T06:25:56.413Z,3.38
2023-05-23T06:28:22.948Z,2.85
2023-05-23T06:30:49.618Z,2.70
2023-05-23T06:33:16.470Z,2.80
2023-05-23T06:35:43.242Z,2.20
2023-05-23T06:38:09.775Z,2.30
2023-05-23T06:40:36.373Z,2.28
2023-05-23T06:43:03.568Z,2.22
2023-05-23T06:45:30.056Z,1.95
2023-05-23T06:47:57.006Z,1.80
2023-05-23T06:50:23.516Z,1.85
2023-05-23T06:52:50.179Z,2.60
2023-05-23T06:55:19.360Z,2.33
2023-05-23T06:57:46.839Z,2.38
2023-05-23T07:00:14.160Z,2.33
2023-05-23T07:02:40.841Z,2.03
2023-05-23T07:05:07.954Z,2.28
2023-05-23T07:07:34.618Z,2.28
2023-05-23T07:10:02.022Z,2.22
2023-05-23T07:12:28.556Z,3.00
2023-05-23T07:14:55.475Z,1.95
2023-05-23T07:17:22.659Z,2.00
2023-05-23T07:19:49.374Z,2.50
2023-05-23T07:22:15.826Z,2.35
2023-05-23T07:24:42.364Z,2.10
2023-05-23T07:27:08.824Z,1.92
2023-05-23T07:29:35.448Z,2.15
2023-05-23T07:32:01.918Z,2.38
2023-05-23T07:34:28.458Z,2.30
2023-05-23T07:36:54.966Z,2.22
2023-05-23T07:39:22.647Z,2.08
2023-05-23T07:41:50.176Z,2.40
2023-05-23T07:44:18.950Z,2.00
2023-05-23T07:46:45.646Z,2.42
2023-05-23T07:49:12.186Z,2.40
2023-05-23T07:51:38.685Z,2.08
2023-05-23T07:54:05.559Z,2.40
2023-05-23T07:56:32.010Z,2.50
2023-05-23T07:58:58.440Z,2.25
2023-05-23T08:01:25.610Z,2.35
2023-05-23T08:03:52.284Z,2.30
2023-05-23T08:06:18.770Z,2.70
2023-05-23T08:08:45.225Z,3.03
2023-05-23T08:11:11.702Z,2.53
2023-05-23T08:13:38.605Z,2.42
2023-05-23T08:16:05.311Z,2.60
2023-05-23T08:18:31.793Z,2.90
2023-05-23T08:20:58.401Z,2.88
2023-05-23T08:23:25.481Z,2.58
2023-05-23T08:25:53.157Z,2.67
2023-05-23T08:28:19.591Z,4.03
2023-05-23T08:30:46.865Z,3.67
2023-05-23T08:33:13.426Z,3.50
2023-05-23T08:35:41.685Z,3.33
2023-05-23T08:38:08.913Z,3.58
2023-05-23T08:40:37.160Z,3.25
2023-05-23T08:43:03.933Z,3.30
2023-05-23T08:45:31.164Z,3.13
2023-05-23T08:48:01.389Z,3.55
2023-05-23T08:50:30.520Z,3.47
2023-05-23T08:52:58.692Z,3.88
2023-05-23T08:55:27.353Z,3.85
2023-05-23T08:58:00.813Z,3.58
2023-05-23T09:00:28.339Z,3.30
2023-05-23T09:02:55.256Z,5.13
2023-05-23T09:05:22.055Z,3.22
2023-05-23T09:07:55.090Z,3.55
2023-05-23T09:10:21.810Z,3.85
2023-05-23T09:12:49.443Z,3.42
2023-05-23T09:15:17.133Z,3.55
2023-05-23T09:17:45.422Z,13.60
2023-05-23T09:20:15.051Z,4.10
2023-05-23T09:22:45.731Z,6.05
2023-05-23T09:25:12.355Z,4.00
2023-05-23T09:27:39.161Z,4.22
2023-05-23T09:30:10.641Z,41.22
2023-05-23T09:32:37.287Z,4.45
2023-05-23T09:35:06.124Z,35.17
2023-05-23T09:37:41.340Z,4.00
2023-05-23T09:40:13.671Z,4.80
2023-05-23T09:42:48.121Z,3.50
2023-05-23T09:45:16.355Z,3.58
2023-05-23T09:47:53.065Z,3.17
2023-05-23T09:50:20.863Z,3.10
2023-05-23T09:52:48.089Z,3.30
2023-05-23T09:55:14.952Z,6.10
2023-05-23T09:57:43.377Z,6.68
2023-05-23T10:00:12.407Z,3.45
2023-05-23T10:03:13.765Z,3.55
2023-05-23T10:05:52.992Z,3.70
2023-05-23T10:08:27.451Z,3.25
2023-05-23T10:10:57.036Z,3.22
2023-05-23T10:13:28.538Z,3.13
2023-05-23T10:16:02.806Z,2.72
2023-05-23T10:18:31.682Z,3.60
2023-05-23T10:21:07.057Z,2.90
2023-05-23T10:23:34.117Z,2.47
2023-05-23T10:26:01.133Z,3.30
2023-05-23T10:28:27.753Z,2.90
2023-05-23T10:30:54.725Z,2.42
2023-05-23T10:33:23.160Z,2.45
2023-05-23T10:36:42.022Z,2.72
2023-05-23T10:39:19.129Z,2.50
2023-05-23T10:42:01.167Z,2.00
2023-05-23T10:44:31.384Z,2.00
2023-05-23T10:47:01.628Z,1.80
2023-05-23T10:49:46.708Z,1.52
2023-05-23T10:52:16.421Z,1.30
2023-05-23T10:54:44.550Z,1.90
2023-05-23T10:57:12.935Z,1.30
2023-05-23T10:59:40.659Z,1.65
2023-05-23T11:02:17.821Z,1.35
2023-05-23T11:04:46.447Z,1.92
2023-05-23T11:07:31.071Z,1.48
2023-05-23T11:10:23.686Z,1.30
2023-05-23T11:12:50.199Z,1.55
2023-05-23T11:15:16.788Z,2.03
2023-05-23T11:17:54.690Z,1.45
2023-05-23T11:20:25.136Z,1.75
2023-05-23T11:22:59.884Z,1.30
2023-05-23T11:25:43.176Z,1.35
2023-05-23T11:28:13.083Z,1.80
2023-05-23T11:30:40.517Z,1.58
2023-05-23T11:33:13.893Z,1.77
2023-05-23T11:35:45.831Z,1.90
2023-05-23T11:38:14.068Z,1.70
2023-05-23T11:40:43.089Z,1.52
2023-05-23T11:43:11.923Z,1.80
2023-05-23T11:45:39.600Z,1.90
2023-05-23T11:48:13.695Z,1.55
2023-05-23T11:50:48.109Z,2.58
2023-05-23T11:53:21.173Z,2.05
2023-05-23T11:56:00.327Z,1.95
2023-05-23T11:58:30.312Z,2.03
2023-05-23T12:01:05.584Z,2.30
2023-05-23T12:03:33.062Z,2.95
2023-05-23T12:06:01.862Z,2.90
2023-05-23T12:08:28.417Z,2.47
2023-05-23T12:11:00.389Z,3.15
2023-05-23T12:13:29.431Z,2.95
2023-05-23T12:15:58.630Z,3.53
2023-05-23T12:18:28.888Z,2.88
2023-05-23T12:20:56.070Z,2.40
2023-05-23T12:23:24.836Z,2.28
2023-05-23T12:25:53.569Z,2.30
2023-05-23T12:28:36.737Z,2.65
2023-05-23T12:31:16.204Z,2.00
2023-05-23T12:33:44.690Z,1.80
2023-05-23T12:36:12.018Z,1.58
2023-05-23T12:38:40.585Z,1.40
2023-05-23T12:41:20.401Z,1.17
2023-05-23T12:43:52.207Z,1.30
2023-05-23T12:46:26.159Z,1.35
2023-05-23T12:48:53.854Z,1.83
2023-05-23T12:51:21.151Z,1.30
2023-05-23T12:53:48.105Z,1.30
2023-05-23T12:56:14.556Z,1.20
2023-05-23T12:58:41.478Z,1.55
2023-05-23T13:01:08.079Z,1.20
2023-05-23T13:03:34.674Z,1.13
2023-05-23T13:06:01.210Z,1.20
2023-05-23T13:08:27.738Z,1.10
2023-05-23T13:10:54.560Z,1.67
2023-05-23T13:13:21.373Z,1.17
2023-05-23T13:15:50.499Z,1.40
2023-05-23T13:18:17.834Z,1.33
2023-05-23T13:20:44.412Z,1.40
2023-05-23T13:23:12.142Z,1.55
2023-05-23T13:25:38.884Z,1.75
2023-05-23T13:28:05.765Z,3.15
2023-05-23T13:30:32.251Z,2.75
2023-05-23T13:32:58.953Z,2.60
2023-05-23T13:35:25.685Z,2.40
2023-05-23T13:37:52.145Z,2.80
2023-05-23T13:40:21.399Z,2.90
2023-05-23T13:42:51.213Z,4.18
2023-05-23T13:45:18.961Z,3.13
2023-05-23T13:47:46.679Z,3.13
2023-05-23T13:50:14.534Z,4.00
2023-05-23T13:52:44.838Z,3.17
2023-05-23T13:55:13.320Z,3.20
2023-05-23T13:57:39.802Z,3.10
2023-05-23T14:00:09.596Z,3.42
2023-05-23T14:02:36.646Z,3.45
2023-05-23T14:05:03.777Z,3.88
2023-05-23T14:07:31.349Z,3.08
2023-05-23T14:09:58.309Z,3.35
2023-05-23T14:12:24.721Z,3.30
2023-05-23T14:14:51.175Z,2.83
2023-05-23T14:17:18.725Z,3.15
2023-05-23T14:19:46.185Z,3.08
2023-05-23T14:22:12.918Z,2.78
2023-05-23T14:24:39.548Z,6.30
2023-05-23T14:27:08.069Z,4.50
2023-05-23T14:29:36.161Z,3.55
2023-05-23T14:32:04.140Z,3.25
2023-05-23T14:34:30.803Z,3.80
2023-05-23T14:36:57.375Z,3.92
2023-05-23T14:39:25.638Z,3.88
2023-05-23T14:41:52.734Z,4.10
2023-05-23T14:44:20.505Z,3.92
2023-05-23T14:46:50.296Z,3.72
2023-05-23T14:49:20.083Z,3.90
2023-05-23T14:51:50.876Z,4.10
2023-05-23T14:54:18.586Z,3.80
2023-05-23T14:56:45.620Z,4.70
2023-05-23T14:59:12.102Z,4.57
2023-05-23T15:01:40.496Z,4.28
2023-05-23T15:04:09.273Z,4.22
2023-05-23T15:06:37.987Z,4.07
2023-05-23T15:09:05.258Z,4.15
2023-05-23T15:11:35.326Z,4.38
2023-05-23T15:14:01.814Z,4.55
2023-05-23T15:16:32.528Z,4.20
2023-05-23T15:18:59.713Z,4.53
2023-05-23T15:21:26.965Z,3.75
2023-05-23T15:23:53.683Z,3.60
2023-05-23T15:26:20.257Z,3.65
2023-05-23T15:28:47.108Z,3.53
2023-05-23T15:31:13.647Z,3.67
2023-05-23T15:33:40.225Z,3.80
2023-05-23T15:36:07.358Z,3.35
2023-05-23T15:38:33.998Z,4.10
2023-05-23T15:41:01.150Z,3.92
2023-05-23T15:43:28.275Z,3.63
2023-05-23T15:45:54.896Z,4.30
2023-05-23T15:48:21.468Z,4.28
2023-05-23T15:50:47.990Z,4.13
2023-05-23T15:53:14.600Z,4.28
2023-05-23T15:55:42.529Z,5.10
2023-05-23T15:58:10.578Z,4.78
2023-05-23T16:00:37.175Z,4.53
2023-05-23T16:03:03.789Z,4.88
2023-05-23T16:05:31.662Z,4.57
2023-05-23T16:07:58.173Z,5.35
2023-05-23T16:10:25.474Z,4.18
2023-05-23T16:12:52.479Z,4.97
2023-05-23T16:15:18.976Z,4.55
2023-05-23T16:17:45.869Z,4.30
2023-05-23T16:20:12.989Z,4.43
2023-05-23T16:22:41.103Z,3.78
2023-05-23T16:25:09.266Z,3.65
2023-05-23T16:27:35.900Z,3.70
2023-05-23T16:30:03.261Z,4.13
2023-05-23T16:32:29.927Z,3.88
2023-05-23T16:34:56.566Z,5.57
2023-05-23T16:37:23.451Z,3.95
2023-05-23T16:39:49.976Z,4.82
2023-05-23T16:42:17.831Z,4.13
2023-05-23T16:44:45.895Z,4.25
2023-05-23T16:47:12.901Z,4.10
2023-05-23T16:49:39.477Z,3.92
2023-05-23T16:52:06.416Z,4.20
2023-05-23T16:54:32.901Z,3.92
2023-05-23T16:57:01.926Z,3.95
2023-05-23T16:59:29.893Z,3.70
2023-05-23T17:01:56.723Z,4.22
2023-05-23T17:04:24.144Z,3.92
2023-05-23T17:06:50.795Z,4.85
2023-05-23T17:09:18.165Z,4.07
2023-05-23T17:11:46.464Z,3.80
2023-05-23T17:14:12.986Z,3.92
2023-05-23T17:16:39.748Z,4.05
2023-05-23T17:19:06.812Z,3.20
2023-05-23T17:21:33.604Z,3.38
2023-05-23T17:24:00.252Z,3.78
2023-05-23T17:26:27.325Z,3.55
2023-05-23T17:28:53.854Z,3.80
2023-05-23T17:31:21.147Z,4.03
2023-05-23T17:33:47.715Z,3.30
2023-05-23T17:36:15.093Z,4.20
2023-05-23T17:38:41.853Z,2.97
2023-05-23T17:41:08.355Z,3.63
2023-05-23T17:43:34.859Z,4.05
2023-05-23T17:46:01.358Z,3.60
2023-05-23T17:48:38.756Z,3.92
2023-05-23T17:51:12.786Z,4.43
2023-05-23T17:53:41.484Z,3.42
2023-05-23T17:56:11.654Z,3.10
2023-05-23T17:58:40.303Z,4.07
2023-05-23T18:01:08.594Z,3.85
2023-05-23T18:03:35.374Z,3.50
2023-05-23T18:06:02.625Z,4.07
2023-05-23T18:08:29.158Z,3.25
2023-05-23T18:10:56.026Z,3.95
2023-05-23T18:13:22.610Z,3.80
2023-05-23T18:15:49.233Z,4.40
2023-05-23T18:18:16.951Z,3.97
2023-05-23T18:20:44.108Z,4.00
2023-05-23T18:23:10.934Z,4.20
2023-05-23T18:25:38.159Z,4.10
2023-05-23T18:28:04.748Z,4.50
2023-05-23T18:30:31.280Z,4.78
2023-05-23T18:32:59.188Z,3.83
2023-05-23T18:35:25.947Z,4.00
2023-05-23T18:37:53.755Z,4.68
2023-05-23T18:40:21.830Z,4.00
2023-05-23T18:42:48.558Z,4.13
2023-05-23T18:45:15.104Z,4.32
2023-05-23T18:47:42.179Z,4.00
2023-05-23T18:50:09.241Z,4.10
2023-05-23T18:52:37.369Z,3.58
2023-05-23T18:55:04.223Z,4.18
2023-05-23T18:57:32.310Z,5.20
2023-05-23T19:00:00.025Z,6.13
2023-05-23T19:02:27.192Z,5.15
2023-05-23T19:04:54.031Z,4.10
2023-05-23T19:07:20.653Z,4.15
2023-05-23T19:09:47.572Z,3.92
2023-05-23T19:12:14.028Z,4.07
2023-05-23T19:14:40.951Z,4.25
2023-05-23T19:17:07.358Z,4.45
2023-05-23T19:19:37.595Z,4.50
2023-05-23T19:22:04.708Z,3.90
2023-05-23T19:24:32.614Z,4.25
2023-05-23T19:26:59.671Z,4.95
2023-05-23T19:29:26.713Z,4.10
2023-05-23T19:31:53.748Z,3.92
2023-05-23T19:34:20.326Z,3.92
2023-05-23T19:36:46.804Z,4.15
2023-05-23T19:39:13.326Z,3.95
2023-05-23T19:41:40.787Z,3.92
2023-05-23T19:44:07.464Z,3.90
2023-05-23T19:46:34.337Z,4.70
2023-05-23T19:49:00.998Z,4.25
2023-05-23T19:51:29.147Z,3.75
2023-05-23T19:53:57.009Z,4.07
2023-05-23T19:56:25.812Z,4.18
2023-05-23T19:58:52.297Z,4.95
2023-05-23T20:01:18.991Z,4.22
2023-05-23T20:03:45.606Z,3.83
2023-05-23T20:06:16.339Z,4.97
2023-05-23T20:08:43.153Z,3.92
2023-05-23T20:11:10.499Z,4.32
2023-05-23T20:13:38.201Z,3.55
2023-05-23T20:16:04.833Z,4.65
2023-05-23T20:18:31.634Z,4.18
2023-05-23T20:20:58.280Z,4.03
2023-05-23T20:23:24.855Z,6.70
2023-05-23T20:25:51.846Z,4.68
2023-05-23T20:28:18.417Z,4.15
2023-05-23T20:30:44.932Z,3.90
2023-05-23T20:33:13.904Z,4.40
2023-05-23T20:35:42.665Z,4.05
2023-05-23T20:38:09.349Z,4.57
2023-05-23T20:40:36.048Z,3.72
2023-05-23T20:43:05.172Z,3.35
2023-05-23T20:45:32.840Z,4.50
2023-05-23T20:47:59.683Z,4.30
2023-05-23T20:50:26.615Z,3.80
2023-05-23T20:52:54.060Z,4.85
2023-05-23T20:55:20.680Z,4.45
2023-05-23T20:57:47.839Z,4.30
2023-05-23T21:00:14.844Z,5.15
2023-05-23T21:02:42.476Z,4.07
2023-05-23T21:05:10.655Z,3.72
2023-05-23T21:07:37.741Z,4.15
2023-05-23T21:10:05.033Z,3.63
2023-05-23T21:12:32.802Z,5.60
2023-05-23T21:14:59.363Z,3.92
2023-05-23T21:17:26.268Z,3.78
2023-05-23T21:19:52.788Z,4.15
2023-05-23T21:22:19.305Z,4.10
2023-05-23T21:24:45.938Z,4.65
2023-05-23T21:27:12.746Z,3.70
2023-05-23T21:29:39.263Z,4.43
2023-05-23T21:32:06.106Z,6.53
2023-05-23T21:34:32.669Z,9.15
2023-05-23T21:36:59.485Z,6.78
2023-05-23T21:39:39.538Z,5.97
2023-05-23T21:42:13.851Z,7.00
2023-05-23T21:44:40.973Z,5.45
2023-05-23T21:47:08.113Z,5.07
2023-05-23T21:49:35.577Z,3.95
2023-05-23T21:52:02.518Z,4.05
2023-05-23T21:54:34.721Z,3.45
2023-05-23T21:57:01.384Z,4.18
2023-05-23T21:59:27.951Z,3.78
2023-05-23T22:01:54.808Z,3.72
2023-05-23T22:04:21.403Z,3.75
2023-05-23T22:06:48.033Z,3.92
2023-05-23T22:09:15.546Z,3.85
2023-05-23T22:11:42.499Z,3.80
2023-05-23T22:14:09.445Z,4.50
2023-05-23T22:16:39.526Z,3.65
2023-05-23T22:19:07.204Z,3.75
2023-05-23T22:21:34.754Z,3.92
2023-05-23T22:24:01.294Z,5.32
2023-05-23T22:26:28.162Z,10.75
2023-05-23T22:28:55.252Z,5.72
2023-05-23T22:31:22.159Z,4.80
2023-05-23T22:33:48.821Z,4.85
2023-05-23T22:36:16.267Z,4.18
2023-05-23T22:38:43.062Z,4.53
2023-05-23T22:41:09.774Z,3.80
2023-05-23T22:43:37.264Z,3.70
2023-05-23T22:46:04.210Z,3.47
2023-05-23T22:48:33.807Z,3.72
2023-05-23T22:51:02.384Z,5.00
2023-05-23T22:53:30.109Z,3.92
2023-05-23T22:55:57.030Z,4.65
2023-05-23T22:58:23.536Z,3.92
2023-05-23T23:00:50.268Z,3.80
2023-05-23T23:03:17.156Z,3.50
2023-05-23T23:05:44.518Z,3.97
2023-05-23T23:08:11.054Z,3.83
2023-05-23T23:10:37.598Z,3.97
2023-05-23T23:13:04.649Z,4.43
2023-05-23T23:15:33.956Z,3.92
2023-05-23T23:18:01.228Z,3.33
2023-05-23T23:20:28.343Z,3.50
2023-05-23T23:22:55.222Z,3.80
2023-05-23T23:25:22.159Z,4.00
2023-05-23T23:27:48.886Z,3.63
2023-05-23T23:30:15.646Z,3.80
2023-05-23T23:32:42.251Z,3.88
2023-05-23T23:35:09.052Z,4.28
2023-05-23T23:37:35.751Z,3.60
2023-05-23T23:40:02.264Z,4.38
2023-05-23T23:42:28.909Z,4.25
2023-05-23T23:44:55.503Z,3.92
2023-05-23T23:47:22.093Z,3.65
2023-05-23T23:49:48.594Z,4.00
2023-05-23T23:52:15.931Z,3.30
2023-05-23T23:54:42.458Z,4.00
2023-05-23T23:57:13.704Z,4.13
2023-05-23T23:59:43.686Z,4.03
